Time;durP1;ratioP1;P1;durP2;ratioP2;P2;SDS_P1;SDS_P2;PMS_P1;PMS_P2;Temp;Humidity;BMP_temperature;BMP_pressure;BME280_temperature;BME280_humidity;BME280_pressure;Samples;Min_cycle;Max_cycle;Signal;HPM_P1;HPM_P2
2024/01/05 00:00:24;;;;;;;5.07;2.78;;;;;;;8.08;74.07;99352.56;3126821;28;20044;-63
2024/01/05 00:01:55;;;;;;;6.03;2.83;;;;;;;8.10;73.70;99356.75;3127400;28;20110;-63
2024/01/05 00:03:26;;;;;;;6.90;2.60;;;;;;;8.12;73.88;99356.72;3126718;28;20067;-63
2024/01/05 00:04:58;;;;;;;4.80;2.63;;;;;;;8.12;73.96;99359.31;3131870;28;20055;-63
2024/01/05 00:06:29;;;;;;;5.60;2.42;;;;;;;8.12;73.77;99351.53;3132008;28;20048;-63
2024/01/05 00:08:01;;;;;;;4.30;2.20;;;;;;;8.06;73.83;99341.41;3132358;28;20056;-63
2024/01/05 00:09:31;;;;;;;4.70;2.45;;;;;;;8.16;73.79;99363.44;3131870;28;20057;-64
2024/01/05 00:11:05;;;;;;;2.95;2.00;;;;;;;8.15;73.73;99356.59;3131896;28;20501;-63
2024/01/05 00:12:36;;;;;;;3.67;2.13;;;;;;;8.17;73.66;99366.00;3132087;28;20534;-64
2024/01/05 00:14:07;;;;;;;3.90;1.98;;;;;;;8.22;73.57;99376.16;3131901;28;20561;-64
2024/01/05 00:15:38;;;;;;;3.58;1.90;;;;;;;8.24;73.46;99379.53;3132233;28;20052;-64
2024/01/05 00:17:10;;;;;;;4.95;1.67;;;;;;;8.23;73.57;99380.47;3131950;28;20057;-64
2024/01/05 00:18:42;;;;;;;3.97;1.58;;;;;;;8.16;73.19;99363.44;3131721;28;20045;-64
2024/01/05 00:20:13;;;;;;;4.10;1.98;;;;;;;8.30;73.33;99389.66;3132484;28;20052;-64
2024/01/05 00:21:45;;;;;;;3.08;1.80;;;;;;;8.32;72.95;99387.84;3132473;28;20147;-66
2024/01/05 00:23:15;;;;;;;3.65;2.00;;;;;;;8.34;73.11;99391.22;3131520;28;20049;-67
2024/01/05 00:24:47;;;;;;;4.43;1.60;;;;;;;8.27;72.88;99382.00;3132156;28;20052;-67
2024/01/05 00:26:20;;;;;;;2.58;2.03;;;;;;;8.34;72.79;99392.94;3131900;28;20049;-67
2024/01/05 00:27:52;;;;;;;2.88;2.00;;;;;;;8.37;72.96;99398.88;3132254;28;20098;-67
2024/01/05 00:29:23;;;;;;;7.15;2.42;;;;;;;8.36;72.93;99396.34;3131214;28;20049;-66
2024/01/05 00:30:55;;;;;;;4.47;1.77;;;;;;;8.30;72.89;99389.66;3132014;28;20049;-67
2024/01/05 00:32:25;;;;;;;3.85;1.90;;;;;;;8.32;72.57;99393.03;3131428;28;20053;-64
2024/01/05 00:33:57;;;;;;;4.30;1.85;;;;;;;8.36;72.70;99396.34;3132043;28;20481;-64
2024/01/05 00:35:28;;;;;;;4.93;2.03;;;;;;;8.32;72.45;99387.00;3131914;28;20052;-66
2024/01/05 00:37:00;;;;;;;7.63;2.22;;;;;;;8.21;72.58;99366.69;3131917;28;20056;-66
2024/01/05 00:38:30;;;;;;;3.65;1.95;;;;;;;8.37;72.63;99392.81;3131964;28;20442;-67
2024/01/05 00:40:02;;;;;;;5.60;2.50;;;;;;;8.24;72.40;99371.75;3132078;28;20044;-67
2024/01/05 00:41:34;;;;;;;5.97;2.17;;;;;;;8.38;72.34;99397.13;3131736;28;20055;-66
2024/01/05 00:43:06;;;;;;;3.90;2.03;;;;;;;8.36;72.38;99389.38;3131783;28;20433;-64
2024/01/05 00:44:37;;;;;;;4.00;1.98;;;;;;;8.37;72.36;99395.41;3131637;28;20056;-64
2024/01/05 00:46:09;;;;;;;5.68;2.17;;;;;;;8.34;72.33;99393.81;3132100;28;20049;-65
2024/01/05 00:47:40;;;;;;;3.08;1.75;;;;;;;8.35;72.22;99387.72;3132263;28;20049;-65
2024/01/05 00:49:11;;;;;;;3.67;1.90;;;;;;;8.35;72.27;99392.06;3131763;28;20052;-64
2024/01/05 00:50:42;;;;;;;3.22;1.92;;;;;;;8.29;71.88;99389.72;3131695;28;20057;-64
2024/01/05 00:52:14;;;;;;;3.92;2.03;;;;;;;8.29;72.20;99387.13;3131845;28;20476;-64
2024/01/05 00:53:45;;;;;;;4.57;1.98;;;;;;;8.33;72.02;99394.72;3131908;28;20059;-64
2024/01/05 00:55:17;;;;;;;2.60;1.35;;;;;;;8.31;71.87;99393.94;3131460;28;20429;-66
2024/01/05 00:56:50;;;;;;;3.50;1.67;;;;;;;8.32;71.82;99395.63;3131558;28;20049;-65
2024/01/05 00:58:20;;;;;;;3.47;1.77;;;;;;;8.14;71.89;99362.69;3131684;28;20442;-65
2024/01/05 00:59:53;;;;;;;3.97;1.80;;;;;;;8.21;72.10;99388.28;3131943;28;20047;-65
2024/01/05 01:01:23;;;;;;;7.18;3.15;;;;;;;8.27;71.89;99397.56;3131803;28;20103;-65
2024/01/05 01:02:55;;;;;;;10.27;4.72;;;;;;;8.20;72.08;99386.63;3131451;28;20127;-63
2024/01/05 01:04:26;;;;;;;9.77;3.92;;;;;;;8.20;71.92;99384.00;3131549;28;20068;-63
2024/01/05 01:05:58;;;;;;;9.23;3.75;;;;;;;8.23;nan;99383.06;3131828;28;20421;-63
2024/01/05 01:07:28;;;;;;;7.85;3.88;;;;;;;8.20;71.76;99380.59;3131414;28;20583;-64
2024/01/05 01:09:00;;;;;;;6.50;2.45;;;;;;;8.24;71.85;99386.47;3131526;28;20139;-65
2024/01/05 01:10:31;;;;;;;5.47;2.28;;;;;;;8.25;71.66;99385.56;3131833;28;20057;-63
2024/01/05 01:12:05;;;;;;;6.68;2.30;;;;;;;8.25;71.89;99388.16;3131951;28;20360;-63
2024/01/05 01:13:36;;;;;;;4.28;2.05;;;;;;;8.11;71.95;99370.59;3131132;28;20417;-63
2024/01/05 01:15:08;;;;;;;4.35;1.90;;;;;;;8.20;71.49;99380.59;3131534;28;20045;-63
2024/01/05 01:16:39;;;;;;;4.00;2.17;;;;;;;8.17;71.58;99385.91;3131678;28;20533;-62
2024/01/05 01:18:11;;;;;;;3.75;1.95;;;;;;;8.13;71.45;99379.13;3131659;28;20079;-64
2024/01/05 01:19:41;;;;;;;5.35;2.17;;;;;;;7.76;71.91;99336.59;3131779;28;20060;-64
2024/01/05 01:21:13;;;;;;;5.88;2.22;;;;;;;8.11;71.77;99388.75;3131599;28;20053;-64
2024/01/05 01:22:45;;;;;;;3.78;2.20;;;;;;;8.05;71.67;99386.41;3131512;28;20056;-65
2024/01/05 01:24:16;;;;;;;3.65;1.80;;;;;;;8.05;71.55;99392.44;3130963;28;20135;-65
2024/01/05 01:25:47;;;;;;;4.53;2.00;;;;;;;8.09;71.46;99399.19;3131753;28;20375;-65
2024/01/05 01:27:20;;;;;;;4.50;1.83;;;;;;;8.10;71.58;99394.81;3123904;28;20041;-65
2024/01/05 01:28:51;;;;;;;4.80;2.17;;;;;;;8.08;71.31;99405.28;3130917;28;20063;-65
2024/01/05 01:30:23;;;;;;;3.65;1.65;;;;;;;8.05;71.60;99391.59;3131422;28;20581;-65
2024/01/05 01:31:54;;;;;;;3.60;1.80;;;;;;;8.11;71.35;99409.50;3131778;28;20175;-64
2024/01/05 01:33:25;;;;;;;3.00;1.60;;;;;;;8.06;71.39;99404.50;3131652;28;20053;-65
2024/01/05 01:34:56;;;;;;;3.00;1.45;;;;;;;8.10;71.01;99406.03;3131543;28;20053;-65
2024/01/05 01:36:28;;;;;;;2.92;1.40;;;;;;;7.91;70.86;99374.00;3131607;28;20053;-65
2024/01/05 01:37:59;;;;;;;3.78;1.90;;;;;;;8.03;71.05;99398.59;3131881;28;20135;-64
2024/01/05 01:39:30;;;;;;;4.15;1.73;;;;;;;8.08;71.17;99409.63;3131553;28;20060;-65
2024/01/05 01:41:03;;;;;;;2.88;1.50;;;;;;;8.07;70.92;99413.94;3131211;28;20053;-65
2024/01/05 01:42:36;;;;;;;3.47;1.55;;;;;;;8.08;70.91;99417.41;3133632;28;20045;-64
2024/01/05 01:44:07;;;;;;;2.38;1.38;;;;;;;8.02;71.09;99400.34;3133680;28;20052;-64
2024/01/05 01:45:38;;;;;;;2.58;1.40;;;;;;;8.07;71.15;99413.09;3133856;28;20049;-64
2024/01/05 01:47:10;;;;;;;3.17;1.67;;;;;;;7.97;70.61;99395.34;3133861;28;20060;-65
2024/01/05 01:48:42;;;;;;;4.25;1.60;;;;;;;8.08;70.54;99414.81;3133702;28;20060;-65
2024/01/05 01:50:14;;;;;;;3.15;1.80;;;;;;;8.07;70.75;99423.47;3133392;28;20045;-64
2024/01/05 01:51:46;;;;;;;4.30;1.75;;;;;;;8.06;70.53;99417.47;3134012;28;20052;-65
2024/01/05 01:53:20;;;;;;;4.18;1.60;;;;;;;8.06;70.70;99421.81;3133661;28;20114;-65
2024/01/05 01:54:51;;;;;;;2.75;1.50;;;;;;;8.07;70.66;99415.69;3133809;28;20142;-65
2024/01/05 01:56:23;;;;;;;4.50;1.38;;;;;;;8.03;70.31;99408.97;3133852;28;20045;-65
2024/01/05 01:57:57;;;;;;;2.83;1.30;;;;;;;7.93;70.46;99398.97;3133688;28;20053;-65
2024/01/05 01:59:29;;;;;;;2.97;1.30;;;;;;;8.06;70.47;99412.28;3133287;28;20065;-65
2024/01/05 02:01:00;;;;;;;2.93;1.10;;;;;;;8.02;70.27;99405.53;3133331;28;20583;-65
2024/01/05 02:02:33;;;;;;;2.08;1.20;;;;;;;8.07;70.25;99407.94;3133313;28;20468;-65
2024/01/05 02:04:04;;;;;;;2.13;1.08;;;;;;;8.07;69.89;99400.16;3133891;28;20059;-65
2024/01/05 02:05:36;;;;;;;3.95;1.10;;;;;;;8.08;69.86;99412.22;3133587;28;20529;-63
2024/01/05 02:07:07;;;;;;;2.67;1.10;;;;;;;8.10;69.86;99406.03;3131505;28;20049;-64
2024/01/05 02:08:39;;;;;;;3.20;1.27;;;;;;;8.09;69.67;99406.97;3132921;28;20049;-63
2024/01/05 02:10:10;;;;;;;2.25;1.30;;;;;;;8.08;69.81;99404.44;3132411;28;20045;-63
2024/01/05 02:11:42;;;;;;;2.42;1.30;;;;;;;8.10;69.54;99402.59;3133417;28;20136;-63
2024/01/05 02:13:15;;;;;;;5.90;1.50;;;;;;;8.14;69.31;99409.38;3133392;28;20572;-63
2024/01/05 02:14:47;;;;;;;3.53;1.40;;;;;;;8.09;69.39;99403.53;3133293;28;20068;-63
2024/01/05 02:16:17;;;;;;;2.63;1.35;;;;;;;8.14;69.37;99417.16;3133116;28;20064;-63
2024/01/05 02:17:49;;;;;;;4.93;1.17;;;;;;;8.00;69.20;99389.19;3134023;28;20447;-63
2024/01/05 02:19:20;;;;;;;2.47;1.23;;;;;;;8.15;69.00;99413.66;3133400;28;20530;-62
2024/01/05 02:20:52;;;;;;;3.67;1.02;;;;;;;8.15;69.03;99411.88;3133291;28;20140;-63
2024/01/05 02:22:26;;;;;;;2.22;0.82;;;;;;;8.10;68.83;99402.59;3133285;28;20045;-63
2024/01/05 02:24:00;;;;;;;2.10;1.23;;;;;;;8.16;69.01;99412.72;3133190;28;20411;-65
2024/01/05 02:25:30;;;;;;;;;;;;;;;8.02;69.00;99418.50;3133747;28;20052;-64
2024/01/05 02:27:02;;;;;;;2.90;1.23;;;;;;;8.05;69.23;99422.72;3133149;28;19928;-63
2024/01/05 02:28:37;;;;;;;1.67;0.90;;;;;;;8.10;69.13;99420.75;3133217;28;20053;-63
2024/01/05 02:30:09;;;;;;;2.17;1.20;;;;;;;8.09;68.92;99409.56;3132992;28;20056;-64
2024/01/05 02:31:40;;;;;;;2.50;1.40;;;;;;;8.09;68.99;99412.16;3133524;28;20053;-64
2024/01/05 02:33:12;;;;;;;2.47;1.70;;;;;;;8.10;68.64;99413.81;3133226;28;20045;-63
2024/01/05 02:34:43;;;;;;;1.95;1.30;;;;;;;8.12;68.61;99408.59;3133025;28;20053;-63
2024/01/05 02:36:14;;;;;;;2.15;0.90;;;;;;;8.10;68.80;99411.22;3133195;28;20473;-63
2024/01/05 02:37:45;;;;;;;2.35;1.08;;;;;;;8.06;68.49;99401.06;3133306;28;20520;-63
2024/01/05 02:39:18;;;;;;;1.67;0.82;;;;;;;8.11;68.72;99417.28;3133009;28;20049;-63
2024/01/05 02:40:49;;;;;;;6.53;1.10;;;;;;;8.10;68.47;99420.75;3133131;28;20422;-63
2024/01/05 02:42:21;;;;;;;3.20;1.10;;;;;;;8.10;68.74;99413.81;3133098;28;20056;-63
2024/01/05 02:43:52;;;;;;;2.60;0.85;;;;;;;8.11;68.69;99417.28;3133098;28;20060;-63
2024/01/05 02:45:24;;;;;;;5.47;1.30;;;;;;;8.12;68.35;99418.97;3132977;28;20289;-63
2024/01/05 02:46:55;;;;;;;1.38;0.75;;;;;;;8.12;68.47;99418.97;3132845;28;20052;-63
2024/01/05 02:48:27;;;;;;;1.92;1.08;;;;;;;8.10;68.12;99418.16;3133133;28;20088;-63
2024/01/05 02:49:57;;;;;;;2.65;0.90;;;;;;;8.15;68.13;99424.03;3133254;28;20045;-63
2024/01/05 02:51:29;;;;;;;2.40;1.23;;;;;;;8.14;67.95;99417.16;3132938;28;20060;-62
2024/01/05 02:53:00;;;;;;;3.10;1.20;;;;;;;8.17;68.14;99420.47;3132777;28;20052;-63
2024/01/05 02:54:33;;;;;;;1.80;0.77;;;;;;;8.17;68.21;99423.06;3133030;28;20063;-63
2024/01/05 02:56:05;;;;;;;5.57;0.93;;;;;;;8.13;68.13;99421.50;3133097;28;20054;-63
2024/01/05 02:57:36;;;;;;;1.42;0.77;;;;;;;8.09;68.05;99414.75;3133286;28;20056;-63
2024/01/05 02:59:07;;;;;;;5.20;1.02;;;;;;;8.18;67.74;99427.31;3125107;28;20044;-64
2024/01/05 03:00:39;;;;;;;2.15;0.80;;;;;;;8.20;67.55;99427.28;3132841;28;20048;-65
2024/01/05 03:02:10;;;;;;;1.90;0.68;;;;;;;8.21;67.61;99428.94;3132902;28;20124;-65
2024/01/05 03:03:41;;;;;;;4.05;0.85;;;;;;;8.17;67.72;99424.81;3133037;28;20049;-64
2024/01/05 03:05:13;;;;;;;1.52;0.73;;;;;;;8.23;67.38;99431.50;3132667;28;20053;-65
2024/01/05 03:06:44;;;;;;;2.35;0.68;;;;;;;7.89;67.29;99381.84;3132906;28;20056;-65
2024/01/05 03:08:16;;;;;;;2.08;0.65;;;;;;;8.12;67.30;99411.19;3133027;28;20451;-65
2024/01/05 03:09:48;;;;;;;1.92;0.80;;;;;;;8.21;67.19;99429.78;3133236;28;20044;-65
2024/01/05 03:11:20;;;;;;;1.42;0.70;;;;;;;8.24;66.73;99436.59;3132772;28;20378;-65
2024/01/05 03:12:51;;;;;;;2.25;0.80;;;;;;;8.27;66.65;99439.06;3133038;28;20045;-64
2024/01/05 03:14:23;;;;;;;2.00;0.70;;;;;;;8.27;66.61;99444.25;3132550;28;20064;-67
2024/01/05 03:15:56;;;;;;;2.42;0.65;;;;;;;8.28;66.32;99448.56;3132891;28;20051;-67
2024/01/05 03:17:27;;;;;;;2.10;0.55;;;;;;;8.29;65.93;99447.66;3132753;28;20082;-65
2024/01/05 03:18:58;;;;;;;2.47;0.82;;;;;;;8.30;65.85;99451.91;3132454;28;20057;-65
2024/01/05 03:20:30;;;;;;;2.28;0.60;;;;;;;8.31;65.79;99445.84;3132195;28;20391;-64
2024/01/05 03:22:01;;;;;;;2.10;0.68;;;;;;;8.29;65.54;99446.81;3132584;28;20067;-63
2024/01/05 03:23:33;;;;;;;3.10;0.80;;;;;;;8.32;65.47;99463.09;3132692;28;20056;-65
2024/01/05 03:25:06;;;;;;;1.67;0.82;;;;;;;8.30;65.59;99454.50;3132477;28;20522;-65
2024/01/05 03:26:38;;;;;;;1.75;0.80;;;;;;;8.32;65.38;99463.09;3132532;28;20186;-65
2024/01/05 03:28:10;;;;;;;2.15;0.95;;;;;;;8.32;65.33;99462.25;3132447;28;20056;-64
2024/01/05 03:29:42;;;;;;;1.90;0.85;;;;;;;8.31;65.41;99466.59;3132369;28;20104;-64
2024/01/05 03:31:14;;;;;;;1.45;0.80;;;;;;;8.25;65.39;99461.63;3132581;28;20410;-62
2024/01/05 03:32:45;;;;;;;2.17;0.82;;;;;;;8.30;65.05;99458.84;3132654;28;20063;-63
2024/01/05 03:34:17;;;;;;;2.88;0.95;;;;;;;8.34;64.95;99471.66;3132485;28;20048;-62
2024/01/05 03:35:47;;;;;;;2.08;0.90;;;;;;;8.34;64.73;99482.03;3132808;28;20103;-62
2024/01/05 03:37:19;;;;;;;4.70;1.20;;;;;;;8.35;64.70;99488.06;3131840;28;20127;-62
2024/01/05 03:38:50;;;;;;;7.10;2.70;;;;;;;8.30;64.79;99475.25;3132353;28;20048;-63
2024/01/05 03:40:23;;;;;;;1.70;0.73;;;;;;;8.32;64.69;99473.47;3132582;28;20052;-63
2024/01/05 03:41:54;;;;;;;0.95;0.57;;;;;;;8.34;64.81;99484.63;3132545;28;20049;-63
2024/01/05 03:43:26;;;;;;;1.85;0.70;;;;;;;8.30;64.41;99482.22;3132145;28;20045;-65
2024/01/05 03:44:57;;;;;;;1.67;0.77;;;;;;;8.36;64.43;99498.34;3132250;28;20053;-65
2024/01/05 03:46:28;;;;;;;1.70;0.70;;;;;;;8.31;64.18;99492.53;3132139;28;20053;-65
2024/01/05 03:47:59;;;;;;;1.75;0.70;;;;;;;8.37;64.42;99502.66;3132520;28;20055;-65
2024/01/05 03:49:31;;;;;;;3.13;0.88;;;;;;;8.37;64.36;99518.22;3132314;28;20053;-66
2024/01/05 03:51:03;;;;;;;2.25;0.70;;;;;;;8.39;63.96;99515.59;3132649;28;20080;-66
2024/01/05 03:52:34;;;;;;;1.88;0.70;;;;;;;8.35;64.23;99514.00;3132278;28;20561;-66
2024/01/05 03:54:06;;;;;;;2.28;0.95;;;;;;;8.34;63.88;99518.34;3132569;28;20048;-66
2024/01/05 03:55:38;;;;;;;1.95;0.80;;;;;;;8.33;63.78;99515.81;3132506;28;20045;-65
2024/01/05 03:57:10;;;;;;;1.00;0.60;;;;;;;8.39;63.97;99526.81;3131979;28;20151;-65
2024/01/05 03:58:41;;;;;;;1.92;0.90;;;;;;;8.38;63.94;99525.13;3132263;28;20052;-64
2024/01/05 04:00:13;;;;;;;1.58;0.80;;;;;;;8.38;63.97;99519.94;3132357;28;20049;-63
2024/01/05 04:01:44;;;;;;;2.15;0.80;;;;;;;8.35;63.71;99525.22;3132362;28;20049;-65
2024/01/05 04:03:17;;;;;;;2.30;0.88;;;;;;;8.36;63.66;99539.88;3132308;28;20498;-62
2024/01/05 04:04:48;;;;;;;1.45;0.73;;;;;;;8.33;64.06;99540.00;3131389;28;20049;-64
2024/01/05 04:06:19;;;;;;;2.58;0.90;;;;;;;8.30;63.77;99526.31;3131939;28;20053;-63
2024/01/05 04:07:51;;;;;;;1.92;0.95;;;;;;;8.35;63.73;99539.94;3132728;28;20047;-63
2024/01/05 04:09:22;;;;;;;2.05;0.82;;;;;;;8.31;63.51;99528.00;3131993;28;20053;-64
2024/01/05 04:10:55;;;;;;;3.17;0.68;;;;;;;8.31;63.68;99531.47;3132222;28;20057;-63
2024/01/05 04:12:26;;;;;;;3.17;1.33;;;;;;;8.33;63.32;99550.38;3132128;28;20139;-63
2024/01/05 04:13:58;;;;;;;2.03;0.80;;;;;;;8.32;63.26;99545.28;3132200;28;20061;-63
2024/01/05 04:15:30;;;;;;;1.67;1.00;;;;;;;8.33;63.36;99559.91;3132200;28;20062;-63
2024/01/05 04:17:01;;;;;;;1.73;1.10;;;;;;;8.29;63.09;99566.97;3131897;28;20645;-63
2024/01/05 04:18:32;;;;;;;2.42;1.00;;;;;;;8.26;63.25;99561.91;3132098;28;20142;-63
2024/01/05 04:20:05;;;;;;;3.75;1.13;;;;;;;8.24;63.37;99566.31;3132345;28;20049;-63
2024/01/05 04:21:36;;;;;;;2.97;1.20;;;;;;;8.23;63.24;99564.63;3132361;28;20064;-63
2024/01/05 04:23:08;;;;;;;2.28;0.88;;;;;;;8.10;63.25;99550.44;3132088;28;20407;-62
2024/01/05 04:24:40;;;;;;;3.92;1.08;;;;;;;8.20;63.18;99572.53;3131859;28;20746;-62
2024/01/05 04:26:13;;;;;;;1.65;0.90;;;;;;;7.85;63.16;99514.25;3132063;28;20199;-62
2024/01/05 04:27:44;;;;;;;2.33;1.10;;;;;;;8.16;63.61;99576.13;3131990;28;20065;-62
2024/01/05 04:29:15;;;;;;;1.90;1.00;;;;;;;8.10;63.23;99572.03;3131752;28;20057;-63
2024/01/05 04:30:46;;;;;;;2.80;0.80;;;;;;;8.09;63.43;99575.53;3131907;28;20420;-61
2024/01/05 04:32:18;;;;;;;2.80;1.15;;;;;;;8.09;63.10;99572.09;3131905;28;20434;-62
2024/01/05 04:33:49;;;;;;;1.95;0.85;;;;;;;8.04;63.48;99572.25;3132177;28;20052;-62
2024/01/05 04:35:21;;;;;;;3.35;1.05;;;;;;;8.06;63.19;99586.03;3132038;28;20190;-64
2024/01/05 04:36:53;;;;;;;1.83;0.70;;;;;;;8.02;63.33;99584.47;3131815;28;20049;-64
2024/01/05 04:38:23;;;;;;;1.50;0.70;;;;;;;7.64;63.21;99528.88;3131833;28;20065;-63
2024/01/05 04:39:55;;;;;;;2.67;0.57;;;;;;;7.99;63.18;99584.59;3132025;28;20065;-64
2024/01/05 04:41:27;;;;;;;1.23;0.60;;;;;;;7.97;63.15;99589.81;3131441;28;20057;-64
2024/01/05 04:42:59;;;;;;;2.17;0.82;;;;;;;7.92;63.38;99589.13;3132026;28;20433;-63
2024/01/05 04:44:30;;;;;;;2.25;1.02;;;;;;;7.91;63.21;99592.63;3131416;28;20529;-64
2024/01/05 04:46:02;;;;;;;1.55;0.75;;;;;;;7.93;63.40;99596.03;3120881;28;20057;-64
2024/01/05 04:47:34;;;;;;;1.13;0.43;;;;;;;7.91;63.16;99597.81;3130201;28;20506;-63
2024/01/05 04:49:06;;;;;;;1.90;0.70;;;;;;;7.86;63.43;99601.50;3132033;28;20055;-63
2024/01/05 04:50:37;;;;;;;2.85;0.88;;;;;;;7.84;63.31;99601.56;3131211;28;20053;-63
2024/01/05 04:52:09;;;;;;;1.27;0.47;;;;;;;7.88;63.21;99612.66;3131986;28;20045;-64
2024/01/05 04:53:40;;;;;;;5.32;1.17;;;;;;;7.86;63.10;99615.28;3131884;28;20136;-64
2024/01/05 04:55:14;;;;;;;1.00;0.80;;;;;;;7.87;63.22;99622.19;3131684;28;20522;-64
2024/01/05 04:56:48;;;;;;;1.63;0.82;;;;;;;7.86;63.38;99628.25;3131639;28;20099;-65
2024/01/05 04:58:18;;;;;;;3.28;0.98;;;;;;;7.75;63.32;99613.13;3131306;28;20506;-64
2024/01/05 04:59:50;;;;;;;3.00;0.73;;;;;;;7.80;63.42;99633.66;3131838;28;20053;-64
2024/01/05 05:01:22;;;;;;;4.30;0.88;;;;;;;7.79;63.32;99632.00;3131500;28;20048;-64
2024/01/05 05:02:53;;;;;;;1.38;0.70;;;;;;;7.75;63.22;99639.03;3131609;28;20045;-66
2024/01/05 05:04:25;;;;;;;2.25;0.57;;;;;;;7.70;63.31;99634.91;3131529;28;20048;-62
2024/01/05 05:05:56;;;;;;;1.83;0.70;;;;;;;7.59;63.67;99618.91;3131992;28;20382;-64
2024/01/05 05:07:28;;;;;;;1.83;0.65;;;;;;;7.65;63.39;99629.03;3131736;28;20053;-63
2024/01/05 05:08:59;;;;;;;1.23;0.50;;;;;;;7.63;63.69;99633.41;3131553;28;20053;-64
2024/01/05 05:10:30;;;;;;;1.50;0.70;;;;;;;7.59;63.49;99630.09;3131709;28;20556;-64
2024/01/05 05:12:04;;;;;;;2.70;1.10;;;;;;;7.59;63.43;99631.84;3131960;28;20071;-65
2024/01/05 05:13:36;;;;;;;1.65;0.80;;;;;;;7.58;63.91;99630.16;3130904;28;20052;-68
2024/01/05 05:15:08;;;;;;;3.50;0.73;;;;;;;7.55;63.54;99636.31;3131473;28;20453;-66
2024/01/05 05:16:41;;;;;;;3.20;0.98;;;;;;;7.53;63.76;99636.34;3134046;28;20552;-66
2024/01/05 05:18:11;;;;;;;1.63;1.00;;;;;;;7.50;63.68;99635.63;3134262;28;20091;-64
2024/01/05 05:19:43;;;;;;;2.65;0.90;;;;;;;7.44;63.59;99638.41;3134241;28;20616;-73
2024/01/05 05:21:15;;;;;;;1.58;0.90;;;;;;;7.41;63.58;99634.19;3134023;28;20506;-68
2024/01/05 05:22:46;;;;;;;3.05;1.25;;;;;;;7.45;63.89;99645.28;3133697;28;20059;-66
2024/01/05 05:24:18;;;;;;;6.85;1.60;;;;;;;7.42;63.71;99641.06;3133736;28;20436;-68
2024/01/05 05:25:49;;;;;;;7.20;3.80;;;;;;;7.11;63.92;99593.81;3134539;28;20649;-66
2024/01/05 05:27:22;;;;;;;18.80;8.13;;;;;;;7.49;63.94;99645.13;3134159;28;20053;-68
2024/01/05 05:28:53;;;;;;;15.65;6.93;;;;;;;7.52;63.76;99651.97;3134195;28;20080;-66
2024/01/05 05:30:25;;;;;;;7.28;2.40;;;;;;;7.52;63.78;99647.63;3133791;28;20053;-69
2024/01/05 05:31:56;;;;;;;5.25;1.70;;;;;;;7.42;63.46;99629.84;3134071;28;20049;-70
2024/01/05 05:33:27;;;;;;;2.13;1.05;;;;;;;7.48;63.48;99651.22;3133848;28;20459;-73
2024/01/05 05:34:59;;;;;;;2.53;1.05;;;;;;;7.52;63.45;99657.16;3133716;28;20045;-69
2024/01/05 05:36:30;;;;;;;1.77;0.95;;;;;;;7.50;63.36;99656.34;3133727;28;20052;-67
2024/01/05 05:38:03;;;;;;;3.38;1.23;;;;;;;7.48;63.20;99652.94;3134020;28;20044;-69
2024/01/05 05:39:34;;;;;;;1.67;0.82;;;;;;;7.46;63.45;99653.03;3133655;28;20073;-65
2024/01/05 05:41:05;;;;;;;3.47;1.27;;;;;;;7.48;63.34;99661.59;3133473;28;20064;-72
2024/01/05 05:42:37;;;;;;;1.88;0.90;;;;;;;7.47;63.44;99659.03;3133523;28;20056;-68
2024/01/05 05:44:09;;;;;;;2.83;0.95;;;;;;;7.49;63.11;99658.09;3133283;28;20128;-68
2024/01/05 05:45:41;;;;;;;3.05;1.00;;;;;;;7.39;63.21;99638.56;3133712;28;20056;-66
2024/01/05 05:47:13;;;;;;;3.25;1.40;;;;;;;7.47;63.06;99651.28;3133507;28;20045;-70
2024/01/05 05:48:43;;;;;;;64.57;33.05;;;;;;;7.55;63.29;99663.97;3133505;28;20060;-73
2024/01/05 05:50:15;;;;;;;13.15;5.97;;;;;;;7.56;62.98;99665.66;3133668;28;20053;-73
2024/01/05 05:51:46;;;;;;;24.20;10.95;;;;;;;7.54;63.02;99665.69;3134371;28;20056;-73
2024/01/05 05:53:18;;;;;;;15.38;8.52;;;;;;;7.62;62.78;99674.06;3133809;28;20128;-73
2024/01/05 05:54:48;;;;;;;5.75;2.50;;;;;;;7.65;62.63;99679.13;3133244;28;20055;-73
2024/01/05 05:56:21;;;;;;;5.30;1.65;;;;;;;7.66;62.78;99679.97;3125787;28;20064;-70
2024/01/05 05:57:53;;;;;;;4.25;1.90;;;;;;;7.66;62.58;99679.97;3133407;28;20057;-72
2024/01/05 05:59:25;;;;;;;5.25;2.22;;;;;;;7.63;62.60;99688.72;3133392;28;20068;-72
2024/01/05 06:00:56;;;;;;;5.15;2.30;;;;;;;7.67;62.62;99692.03;3130705;28;20052;-73
2024/01/05 06:02:28;;;;;;;5.60;2.75;;;;;;;7.32;62.48;99634.50;3132839;28;20140;-71
2024/01/05 06:03:59;;;;;;;5.70;2.70;;;;;;;7.60;62.66;99685.38;3133800;28;20056;-69
2024/01/05 06:05:31;;;;;;;6.35;2.00;;;;;;;7.63;62.20;99690.44;3133148;28;20128;-76
2024/01/05 06:07:02;;;;;;;7.05;3.45;;;;;;;7.69;62.13;99698.00;3132999;28;20106;-69
2024/01/05 06:08:34;;;;;;;6.32;2.45;;;;;;;7.70;62.53;99702.31;3133184;28;20506;-73
2024/01/05 06:10:07;;;;;;;5.70;2.72;;;;;;;7.72;62.03;99706.53;3133008;28;20483;-73
2024/01/05 06:11:39;;;;;;;5.72;2.28;;;;;;;7.69;62.04;99698.00;3128396;28;20054;-75
2024/01/05 06:13:12;;;;;;;4.72;2.35;;;;;;;7.75;61.80;99710.78;3127646;28;20045;-78
2024/01/05 06:14:45;;;;;;;5.47;2.70;;;;;;;7.74;62.00;99709.91;3133140;28;20084;-81
2024/01/05 06:16:16;;;;;;;9.32;2.15;;;;;;;7.43;61.87;99663.50;3133091;28;20053;-72
2024/01/05 06:17:48;;;;;;;5.40;2.28;;;;;;;7.81;61.69;99720.94;3133316;28;20041;-79
2024/01/05 06:19:19;;;;;;;4.03;2.15;;;;;;;7.84;61.81;99723.41;3133010;28;20702;-77
2024/01/05 06:20:50;;;;;;;6.60;2.28;;;;;;;7.89;61.55;99716.28;3133317;28;20135;-75
2024/01/05 06:22:22;;;;;;;11.00;2.58;;;;;;;7.93;61.58;99715.31;3132785;28;20061;-77
2024/01/05 06:23:54;;;;;;;7.53;2.53;;;;;;;7.94;61.57;99721.34;3133308;28;20128;-74
2024/01/05 06:25:25;;;;;;;4.53;2.13;;;;;;;8.03;61.44;99731.38;3133278;28;20568;-75
2024/01/05 06:26:57;;;;;;;8.32;2.67;;;;;;;8.05;61.07;99713.19;3132543;28;20049;-73
2024/01/05 06:28:29;;;;;;;6.15;2.40;;;;;;;8.17;61.29;99723.09;3133130;28;20086;-74
2024/01/05 06:30:01;;;;;;;6.47;2.70;;;;;;;8.29;60.78;99735.63;3132982;28;20575;-74
2024/01/05 06:31:32;;;;;;;7.10;2.92;;;;;;;8.35;60.67;99729.34;3132644;28;20060;-71
2024/01/05 06:33:07;;;;;;;6.18;3.10;;;;;;;8.48;60.39;99740.16;3132800;28;20084;-74
2024/01/05 06:34:38;;;;;;;6.38;2.40;;;;;;;8.55;60.23;99739.03;3132958;28;20164;-74
2024/01/05 06:36:10;;;;;;;7.75;2.95;;;;;;;8.65;59.95;99745.56;3132663;28;20049;-72
2024/01/05 06:37:42;;;;;;;6.47;2.72;;;;;;;8.72;59.64;99741.81;3133299;28;20045;-80
2024/01/05 06:39:13;;;;;;;7.05;3.38;;;;;;;8.81;59.65;99746.63;3132793;28;20121;-70
2024/01/05 06:40:45;;;;;;;7.20;2.53;;;;;;;8.88;59.19;99748.13;3132913;28;20069;-71
2024/01/05 06:42:16;;;;;;;8.40;3.10;;;;;;;8.91;58.89;99736.75;3133005;28;20048;-71
2024/01/05 06:43:49;;;;;;;9.82;3.30;;;;;;;9.05;58.63;99749.19;3133039;28;20045;-74
2024/01/05 06:45:20;;;;;;;;;;;;;;;9.07;58.93;99750.81;3133335;28;20041;-75
2024/01/05 06:46:52;;;;;;;6.93;2.60;;;;;;;9.20;58.71;99760.72;3132864;28;20015;-74
2024/01/05 06:48:23;;;;;;;7.35;3.00;;;;;;;9.29;58.77;99757.78;3132912;28;20048;-76
2024/01/05 06:49:55;;;;;;;8.75;3.38;;;;;;;9.40;58.23;99763.34;3133111;28;20151;-77
2024/01/05 06:51:29;;;;;;;7.45;3.60;;;;;;;9.11;57.83;99695.25;3132457;28;20045;-75
2024/01/05 06:53:01;;;;;;;6.97;3.28;;;;;;;9.37;57.80;99731.47;3132790;28;20140;-70
2024/01/05 06:54:33;;;;;;;9.05;3.90;;;;;;;9.56;57.04;99754.03;3132782;28;20085;-69
2024/01/05 06:56:08;;;;;;;11.38;4.07;;;;;;;9.67;56.92;99766.59;3123181;28;20053;-71
2024/01/05 06:57:39;;;;;;;9.27;3.15;;;;;;;9.72;57.03;99764.63;3132919;28;20501;-75
2024/01/05 06:59:12;;;;;;;8.15;3.78;;;;;;;9.65;56.57;99749.38;3132528;28;20053;-74
2024/01/05 07:00:43;;;;;;;;;;;;;;;9.73;57.18;99774.13;3130071;28;20053;-75
2024/01/05 07:02:16;;;;;;;11.98;4.68;;;;;;;9.82;56.64;99772.03;3131340;28;20385;-72
2024/01/05 07:03:47;;;;;;;8.10;3.67;;;;;;;9.77;56.77;99756.66;3132882;28;20579;-74
2024/01/05 07:05:19;;;;;;;9.25;4.05;;;;;;;9.98;56.54;99778.28;3134885;28;20076;-71
2024/01/05 07:06:50;;;;;;;11.30;4.40;;;;;;;10.06;56.15;99764.94;3131710;28;20139;-74
2024/01/05 07:08:22;;;;;;;26.10;13.82;;;;;;;10.10;55.81;99763.91;3129987;28;20540;-72
2024/01/05 07:09:53;;;;;;;43.28;17.92;;;;;;;10.18;55.41;99757.44;3131158;28;20174;-76
2024/01/05 07:11:25;;;;;;;15.52;7.07;;;;;;;9.93;55.35;99723.84;3128179;28;20589;-68
2024/01/05 07:12:56;;;;;;;9.20;5.05;;;;;;;10.32;55.26;99761.22;3125783;28;20045;-69
2024/01/05 07:14:29;;;;;;;10.32;4.57;;;;;;;10.39;54.99;99758.28;3132528;28;20205;-70
2024/01/05 07:16:00;;;;;;;9.43;4.20;;;;;;;10.46;54.97;99758.84;3132869;28;20903;-72